Powered by GoogleTranslate

Occupational Safety and Health Administration OSHA

Accident Search Results

Description, Abstract, KeywordSICNAICSDate RangeOfficeInsp Nr
NoneAll71391006/14/2002 to 06/14/2016AllAll

By Date

Results 21 - 40 of 146
Result Page: 1 2 3 4 5 6 7 8
  # Summary Nr Event Date Report ID Fat SIC Event Description
21 16516.015 05/10/2012 0111500 X Employee Is Pinned And Injured By Overturned Vehicle And Lat
22 202531281 04/23/2012 0950635   7992 Employee Amputates Fingers In Lawn Mower Blades
23 202471785 04/21/2012 0950643   7992 Employee Injured Left Leg In Trip Over Cable Cord
24 200678647 03/22/2012 0418800 X 7997 Employee Pinned Under Golf Cart In Lake
25 03737.015 09/20/2011 0522300 X Employee Is Killed In Vehicle Collision
26 03506.015 08/29/2011 0524500 X Employee Is Crushed And Killed When Lawn Mower Rolls Over
27 202613931 08/27/2011 1054191   7997 Two Employees Receive Burns To The Face From Drain Cleaner
28 200375640 08/24/2011 0454510 X 7992 Employee Is Run Over By Golf Cart, Later Dies
29 200151595 08/17/2011 0214700 X 7997 Employee Dies Of Heat Stroke
30 200926111 08/01/2011 0355112 X 7997 Employee Is Killed When Crushed By Turf Sprayer
31 202634382 07/07/2011 0950633   7992 Employee Is Injured When Cart Rolls Over
32 201562642 06/24/2011 0854910 X 7992 Employee Dies From Asphyxia
33 202613725 06/15/2011 1054112   7997 Employee'S Toe Is Amputated By Lawn Mower
34 200841997 05/31/2011 0524530 X 7992 Groundskeeper Is Killed In Golf Course Lawn Mower Roll-Over
35 201076429 02/20/2011 0950632   7997 Employee Fractures Back In Fall From Ladder
36 202561171 02/02/2011 0950411 X 7992 Employee Found Unresponsive In Cart And Tangled In Guy Wires
37 202552634 01/18/2011 0950631   7997 Employee Collapses And Suffers Cardiac Arrest
38 202528352 11/24/2010 0420600 X 7992 Employee Is Killed When Struck By Golf Ball
39 200462562 09/03/2010 0111400 X 7992 Employee Drowns In Pond When Run Over By Lawn Mower
40 202520813 08/04/2010 0950624   7992 Employee Injures Head In Fall From Ladder

Thank You for Visiting Our Website

You are exiting the Department of Labor's Web server.

The Department of Labor does not endorse, takes no responsibility for, and exercises no control over the linked organization or its views, or contents, nor does it vouch for the accuracy or accessibility of the information contained on the destination server. The Department of Labor also cannot authorize the use of copyrighted materials contained in linked Web sites. Users must request such authorization from the sponsor of the linked Web site. Thank you for visiting our site. Please click the button below to continue.

Close